Time;durP1;ratioP1;P1;durP2;ratioP2;P2;SDS_P1;SDS_P2;PMS_P1;PMS_P2;Temp;Humidity;BMP_temperature;BMP_pressure;BME280_temperature;BME280_humidity;BME280_pressure;Samples;Min_cycle;Max_cycle;Signal;HPM_P1;HPM_P2
2021/06/27 00:01:21;;;;;;;25.23;20.52;;;;;;;;;;5069365;28;20519;-63
2021/06/27 00:03:47;;;;;;;26.80;21.52;;;;;;;;;;5069650;28;20025;-63
2021/06/27 00:06:13;;;;;;;28.50;21.95;;;;;;;;;;5050640;28;20040;-63
2021/06/27 00:08:39;;;;;;;27.23;21.40;;;;;;;;;;5031375;28;20021;-63
2021/06/27 00:11:07;;;;;;;28.10;21.15;;;;;;;;;;5049628;28;20024;-61
2021/06/27 00:13:33;;;;;;;27.52;21.42;;;;;;;;;;5043656;28;20029;-61
2021/06/27 00:15:59;;;;;;;27.55;22.20;;;;;;;;;;5069036;28;20035;-62
2021/06/27 00:18:26;;;;;;;27.63;20.65;;;;;;;;;;5069309;28;20030;-63
2021/06/27 00:20:54;;;;;;;26.65;21.38;;;;;;;;;;5072372;28;20024;-63
2021/06/27 00:23:21;;;;;;;28.97;20.73;;;;;;;;;;5037838;28;20028;-63
2021/06/27 00:25:48;;;;;;;26.92;21.90;;;;;;;;;;5054188;28;20020;-62
2021/06/27 00:28:14;;;;;;;27.83;21.65;;;;;;;;;;5072018;28;20096;-63
2021/06/27 00:30:43;;;;;;;27.80;21.65;;;;;;;;;;5072893;28;20028;-63
2021/06/27 00:33:09;;;;;;;27.83;21.08;;;;;;;;;;5054887;28;20021;-64
2021/06/27 00:35:35;;;;;;;27.20;21.75;;;;;;;;;;5072336;28;20036;-63
2021/06/27 00:40:46;;;;;;;28.10;22.77;;;;;;;;;;5068595;28;20075;-70
2021/06/27 00:43:12;;;;;;;26.83;21.75;;;;;;;;;;5054064;28;20021;-70
2021/06/27 00:45:38;;;;;;;26.55;20.83;;;;;;;;;;5071582;28;20116;-75
2021/06/27 00:48:05;;;;;;;27.90;22.35;;;;;;;;;;5054098;28;20024;-72
2021/06/27 00:50:41;;;;;;;28.35;22.58;;;;;;;;;;5071719;28;20024;-71
2021/06/27 00:53:08;;;;;;;29.50;22.10;;;;;;;;;;5071764;28;20025;-70
2021/06/27 00:55:34;;;;;;;31.23;22.50;;;;;;;;;;5053684;28;20060;-70
2021/06/27 00:58:00;;;;;;;28.70;22.77;;;;;;;;;;5071770;28;20040;-70
2021/06/27 01:00:28;;;;;;;29.25;22.00;;;;;;;;;;5071652;28;20027;-70
2021/06/27 01:02:55;;;;;;;29.23;22.55;;;;;;;;;;5053903;28;20025;-71
2021/06/27 01:05:40;;;;;;;29.15;22.73;;;;;;;;;;5053480;28;20033;-70
2021/06/27 01:08:06;;;;;;;28.77;23.30;;;;;;;;;;5053843;28;20411;-69
2021/06/27 01:10:33;;;;;;;30.92;24.67;;;;;;;;;;5053648;28;20024;-70
2021/06/27 01:12:59;;;;;;;29.85;23.70;;;;;;;;;;5053372;28;20024;-70
2021/06/27 01:15:25;;;;;;;30.20;23.52;;;;;;;;;;5071116;28;20025;-70
2021/06/27 01:17:52;;;;;;;28.85;23.55;;;;;;;;;;5071395;28;20051;-70
2021/06/27 01:20:20;;;;;;;32.40;25.45;;;;;;;;;;5071432;28;20039;-69
2021/06/27 01:22:47;;;;;;;32.70;24.92;;;;;;;;;;5071518;28;20101;-73
2021/06/27 01:25:16;;;;;;;32.50;25.58;;;;;;;;;;5070966;28;20538;-69
2021/06/27 01:27:42;;;;;;;;;;;;;;;;;;5053847;28;20442;-69
2021/06/27 01:30:11;;;;;;;35.83;25.85;;;;;;;;;;5071381;28;19904;-69
2021/06/27 01:32:42;;;;;;;35.08;26.30;;;;;;;;;;5053197;28;20116;-70
2021/06/27 01:35:09;;;;;;;31.55;25.58;;;;;;;;;;5053281;28;20029;-69
2021/06/27 01:37:35;;;;;;;31.95;26.50;;;;;;;;;;5053681;28;20028;-69
2021/06/27 01:40:01;;;;;;;31.08;25.80;;;;;;;;;;5072174;28;20040;-69
2021/06/27 01:42:27;;;;;;;32.22;27.55;;;;;;;;;;5057369;28;20283;-69
2021/06/27 01:44:54;;;;;;;35.72;27.27;;;;;;;;;;5074953;28;20103;-69
2021/06/27 01:47:27;;;;;;;35.05;26.73;;;;;;;;;;5057084;28;20013;-69
2021/06/27 01:49:53;;;;;;;34.40;28.90;;;;;;;;;;5057159;28;20460;-69
2021/06/27 01:52:19;;;;;;;33.33;27.10;;;;;;;;;;5057059;28;20115;-69
2021/06/27 01:54:45;;;;;;;34.67;28.45;;;;;;;;;;5074644;28;20032;-69
2021/06/27 01:57:11;;;;;;;33.97;27.15;;;;;;;;;;5057072;28;20028;-69
2021/06/27 01:59:37;;;;;;;35.80;28.02;;;;;;;;;;5074904;28;20047;-69
2021/06/27 02:02:03;;;;;;;35.83;28.25;;;;;;;;;;5057137;28;20016;-68
2021/06/27 02:04:29;;;;;;;33.67;27.92;;;;;;;;;;5074767;28;20565;-68
2021/06/27 02:06:55;;;;;;;35.65;29.63;;;;;;;;;;5074992;28;20484;-69
2021/06/27 02:09:22;;;;;;;36.65;28.80;;;;;;;;;;5074604;28;20480;-69
2021/06/27 02:11:48;;;;;;;36.22;27.80;;;;;;;;;;5074495;28;20021;-68
2021/06/27 02:14:14;;;;;;;36.38;29.92;;;;;;;;;;5056282;28;20484;-69
2021/06/27 02:16:40;;;;;;;35.97;29.65;;;;;;;;;;5074377;28;20029;-69
2021/06/27 02:19:06;;;;;;;37.72;30.30;;;;;;;;;;5056376;28;20028;-70
2021/06/27 02:21:35;;;;;;;40.17;31.23;;;;;;;;;;5074636;28;20021;-71
2021/06/27 02:24:01;;;;;;;38.38;29.23;;;;;;;;;;5074366;28;20020;-74
2021/06/27 02:26:27;;;;;;;37.33;30.27;;;;;;;;;;5074551;28;20034;-70
2021/06/27 02:28:54;;;;;;;36.40;30.48;;;;;;;;;;5074096;28;20470;-70
2021/06/27 02:31:20;;;;;;;35.33;29.63;;;;;;;;;;5056228;28;20031;-70
2021/06/27 02:33:46;;;;;;;36.83;31.27;;;;;;;;;;5074256;28;20049;-70
2021/06/27 02:36:13;;;;;;;36.97;30.13;;;;;;;;;;5055966;28;20028;-70
2021/06/27 02:38:39;;;;;;;39.22;31.45;;;;;;;;;;5074038;28;20025;-70
2021/06/27 02:41:06;;;;;;;35.35;30.02;;;;;;;;;;5056113;28;20028;-70
2021/06/27 02:43:33;;;;;;;35.77;29.03;;;;;;;;;;5056050;28;20051;-70
2021/06/27 02:45:59;;;;;;;36.22;30.10;;;;;;;;;;5073675;28;20031;-70
2021/06/27 02:48:25;;;;;;;37.60;31.40;;;;;;;;;;5073784;28;20021;-69
2021/06/27 02:50:51;;;;;;;35.85;29.45;;;;;;;;;;5073763;28;20032;-68
2021/06/27 02:53:17;;;;;;;38.80;31.48;;;;;;;;;;5074195;28;20486;-70
2021/06/27 02:55:43;;;;;;;40.83;32.03;;;;;;;;;;5073929;28;20431;-72
2021/06/27 02:58:09;;;;;;;37.78;31.08;;;;;;;;;;5073801;28;20032;-71
2021/06/27 03:00:35;;;;;;;39.33;32.20;;;;;;;;;;5073917;28;20074;-70
2021/06/27 03:03:01;;;;;;;39.90;32.00;;;;;;;;;;5074287;28;20039;-70
2021/06/27 03:05:28;;;;;;;35.92;30.95;;;;;;;;;;5054848;28;20025;-70
2021/06/27 03:07:54;;;;;;;39.05;31.92;;;;;;;;;;5073729;28;20021;-70
2021/06/27 03:10:20;;;;;;;40.13;33.83;;;;;;;;;;5074149;28;20025;-70
2021/06/27 03:12:47;;;;;;;37.10;31.98;;;;;;;;;;5073955;28;20027;-70
2021/06/27 03:15:15;;;;;;;38.20;32.17;;;;;;;;;;5073542;28;20101;-71
2021/06/27 03:17:41;;;;;;;38.20;31.60;;;;;;;;;;5073865;28;20475;-70
2021/06/27 03:20:09;;;;;;;40.33;33.65;;;;;;;;;;5056086;28;20032;-71
2021/06/27 03:22:35;;;;;;;38.67;32.20;;;;;;;;;;5055842;28;20443;-71
2021/06/27 03:25:01;;;;;;;38.65;31.67;;;;;;;;;;5073637;28;20033;-70
2021/06/27 03:27:27;;;;;;;39.22;33.10;;;;;;;;;;5073775;28;20060;-70
2021/06/27 03:29:53;;;;;;;36.67;30.77;;;;;;;;;;5055518;28;20115;-70
2021/06/27 03:32:19;;;;;;;38.65;32.75;;;;;;;;;;5073256;28;20066;-70
2021/06/27 03:34:45;;;;;;;40.17;32.70;;;;;;;;;;5054940;28;20040;-71
2021/06/27 03:37:11;;;;;;;38.83;31.20;;;;;;;;;;5073148;28;20033;-70
2021/06/27 03:39:37;;;;;;;39.50;31.85;;;;;;;;;;5072839;28;20036;-70
2021/06/27 03:42:04;;;;;;;37.92;31.83;;;;;;;;;;5054882;28;20032;-70
2021/06/27 03:44:30;;;;;;;39.40;33.53;;;;;;;;;;5054628;28;20081;-69
2021/06/27 03:46:56;;;;;;;40.85;31.95;;;;;;;;;;5072956;28;20020;-71
2021/06/27 03:49:22;;;;;;;38.47;31.90;;;;;;;;;;5055092;28;20119;-71
2021/06/27 03:51:48;;;;;;;37.47;30.67;;;;;;;;;;5072950;28;20099;-71
2021/06/27 03:54:15;;;;;;;41.00;32.53;;;;;;;;;;5072715;28;20061;-67
2021/06/27 03:56:41;;;;;;;38.95;31.35;;;;;;;;;;5072901;28;20064;-70
2021/06/27 03:59:07;;;;;;;40.28;33.30;;;;;;;;;;5072679;28;20021;-70
2021/06/27 04:01:34;;;;;;;37.50;32.00;;;;;;;;;;5072641;28;20102;-70
2021/06/27 04:04:00;;;;;;;37.60;32.22;;;;;;;;;;5071914;28;20024;-70
2021/06/27 04:06:26;;;;;;;35.63;30.90;;;;;;;;;;5072126;28;20386;-70
2021/06/27 04:08:52;;;;;;;39.00;31.83;;;;;;;;;;5054428;28;20020;-70
2021/06/27 04:11:18;;;;;;;38.33;31.20;;;;;;;;;;5054614;28;20024;-71
2021/06/27 04:13:44;;;;;;;38.30;32.38;;;;;;;;;;5054788;28;20025;-70
2021/06/27 04:16:10;;;;;;;38.25;31.63;;;;;;;;;;5072502;28;20230;-71
2021/06/27 04:18:37;;;;;;;36.50;31.23;;;;;;;;;;5072247;28;20078;-71
2021/06/27 04:21:03;;;;;;;37.30;30.98;;;;;;;;;;5053800;28;20032;-69
2021/06/27 04:23:30;;;;;;;37.00;30.27;;;;;;;;;;5071710;28;20081;-72
2021/06/27 04:25:56;;;;;;;37.45;29.65;;;;;;;;;;5071937;28;20024;-70
2021/06/27 04:28:22;;;;;;;34.65;29.00;;;;;;;;;;5054307;28;20020;-70
2021/06/27 04:30:48;;;;;;;36.03;29.92;;;;;;;;;;5071731;28;20025;-70
2021/06/27 04:33:14;;;;;;;38.35;29.95;;;;;;;;;;5071469;28;20491;-69
2021/06/27 04:35:40;;;;;;;35.95;30.05;;;;;;;;;;5071412;28;20025;-69
2021/06/27 04:38:07;;;;;;;36.13;30.30;;;;;;;;;;5071436;28;20108;-69
2021/06/27 04:40:34;;;;;;;35.13;29.45;;;;;;;;;;5071772;28;20484;-70
2021/06/27 04:43:00;;;;;;;35.75;29.77;;;;;;;;;;5053920;28;20509;-70
2021/06/27 04:45:26;;;;;;;36.00;29.85;;;;;;;;;;5071834;28;20051;-70
2021/06/27 04:47:52;;;;;;;35.53;29.75;;;;;;;;;;5071995;28;20464;-70
2021/06/27 04:50:19;;;;;;;42.53;33.33;;;;;;;;;;5054018;28;20048;-70
2021/06/27 04:52:46;;;;;;;34.60;28.10;;;;;;;;;;5053976;28;20052;-70
2021/06/27 04:55:12;;;;;;;34.15;28.35;;;;;;;;;;5071617;28;20028;-70
2021/06/27 04:57:38;;;;;;;33.60;28.58;;;;;;;;;;5071908;28;20029;-69
2021/06/27 05:00:05;;;;;;;34.30;28.75;;;;;;;;;;5071912;28;20029;-70
2021/06/27 05:02:31;;;;;;;34.22;28.98;;;;;;;;;;5071797;28;20035;-70
2021/06/27 05:04:57;;;;;;;34.05;27.45;;;;;;;;;;5071521;28;20020;-70
2021/06/27 05:07:23;;;;;;;32.47;26.50;;;;;;;;;;5071838;28;20021;-71
2021/06/27 05:09:50;;;;;;;32.13;26.98;;;;;;;;;;5054100;28;20032;-70
2021/06/27 05:12:16;;;;;;;33.83;26.13;;;;;;;;;;5071912;28;20024;-70
2021/06/27 05:14:42;;;;;;;32.83;26.35;;;;;;;;;;5055879;28;20442;-69
2021/06/27 05:17:08;;;;;;;31.45;24.92;;;;;;;;;;5075602;28;20028;-70
2021/06/27 05:19:34;;;;;;;31.08;26.55;;;;;;;;;;5075817;28;20107;-70
2021/06/27 05:22:00;;;;;;;32.28;24.63;;;;;;;;;;5075564;28;20040;-70
2021/06/27 05:24:26;;;;;;;32.97;26.85;;;;;;;;;;5057460;28;20603;-70
2021/06/27 05:26:52;;;;;;;30.48;25.48;;;;;;;;;;5057694;28;20082;-70
2021/06/27 05:29:18;;;;;;;31.02;25.40;;;;;;;;;;5057397;28;20487;-69
2021/06/27 05:31:44;;;;;;;26.70;22.70;;;;;;;;;;5075410;28;20020;-70
2021/06/27 05:34:10;;;;;;;29.60;22.67;;;;;;;;;;5075125;28;20545;-70
2021/06/27 05:36:39;;;;;;;27.30;22.15;;;;;;;;;;5057398;28;20036;-69
2021/06/27 05:39:09;;;;;;;29.30;23.85;;;;;;;;;;5057105;28;20036;-69
2021/06/27 05:41:35;;;;;;;29.92;24.17;;;;;;;;;;5075221;28;20032;-69
2021/06/27 05:44:02;;;;;;;27.30;23.33;;;;;;;;;;5057318;28;20139;-69
2021/06/27 05:46:28;;;;;;;29.20;24.85;;;;;;;;;;5056980;28;20020;-70
2021/06/27 05:48:54;;;;;;;28.80;23.45;;;;;;;;;;5056970;28;20035;-70
2021/06/27 05:51:20;;;;;;;29.42;22.98;;;;;;;;;;5057395;28;20043;-69
2021/06/27 05:53:46;;;;;;;29.90;24.52;;;;;;;;;;5057087;28;20021;-69
2021/06/27 05:56:16;;;;;;;27.23;21.98;;;;;;;;;;5057185;28;20035;-70
2021/06/27 05:58:42;;;;;;;27.98;24.65;;;;;;;;;;5074912;28;20044;-70
2021/06/27 06:01:10;;;;;;;29.70;24.77;;;;;;;;;;5074694;28;20028;-70
2021/06/27 06:03:37;;;;;;;30.10;24.40;;;;;;;;;;5056941;28;20028;-70
2021/06/27 06:06:03;;;;;;;29.20;23.40;;;;;;;;;;5074423;28;20282;-70
2021/06/27 06:08:29;;;;;;;31.83;24.13;;;;;;;;;;5074756;28;20023;-69
2021/06/27 06:10:55;;;;;;;31.33;25.15;;;;;;;;;;5056773;28;20420;-70
2021/06/27 06:13:21;;;;;;;27.45;22.27;;;;;;;;;;5056681;28;20035;-70
2021/06/27 06:15:47;;;;;;;26.50;21.88;;;;;;;;;;5074306;28;20115;-69
2021/06/27 06:18:14;;;;;;;27.15;23.60;;;;;;;;;;5074423;28;20095;-70
2021/06/27 06:20:40;;;;;;;24.88;20.33;;;;;;;;;;5056689;28;20027;-71
2021/06/27 06:23:06;;;;;;;25.98;20.77;;;;;;;;;;5074595;28;20033;-70
2021/06/27 06:25:32;;;;;;;25.15;20.75;;;;;;;;;;5055973;28;20024;-70
2021/06/27 06:27:58;;;;;;;28.45;22.30;;;;;;;;;;5056642;28;20070;-71
2021/06/27 06:30:24;;;;;;;27.83;22.23;;;;;;;;;;5053267;28;20025;-69
2021/06/27 06:32:50;;;;;;;24.08;20.33;;;;;;;;;;5059803;28;20024;-69
2021/06/27 06:35:16;;;;;;;24.40;21.00;;;;;;;;;;5063578;28;20025;-69
2021/06/27 06:37:42;;;;;;;25.65;20.63;;;;;;;;;;5054176;28;20100;-68
2021/06/27 06:40:09;;;;;;;23.40;19.35;;;;;;;;;;5089555;22;20114;-63
2021/06/27 06:42:35;;;;;;;25.42;19.33;;;;;;;;;;5055847;28;20032;-63
2021/06/27 06:45:01;;;;;;;23.25;19.00;;;;;;;;;;5056035;28;20024;-63
2021/06/27 06:47:27;;;;;;;25.15;20.45;;;;;;;;;;5056246;28;20089;-63
2021/06/27 06:49:53;;;;;;;23.85;20.23;;;;;;;;;;5073978;28;20024;-63
2021/06/27 06:52:19;;;;;;;24.08;19.10;;;;;;;;;;5056103;28;20027;-63
2021/06/27 06:54:45;;;;;;;22.95;20.20;;;;;;;;;;5056088;28;20365;-63
2021/06/27 06:57:11;;;;;;;22.35;18.98;;;;;;;;;;5074178;28;20158;-63
2021/06/27 06:59:37;;;;;;;23.63;19.38;;;;;;;;;;5055906;28;20024;-63
2021/06/27 07:02:03;;;;;;;23.50;19.60;;;;;;;;;;5056081;28;20036;-62
2021/06/27 07:04:29;;;;;;;21.13;17.85;;;;;;;;;;5073440;28;20017;-63
2021/06/27 07:06:55;;;;;;;21.98;18.67;;;;;;;;;;5056055;28;20484;-63
2021/06/27 07:09:21;;;;;;;22.48;18.25;;;;;;;;;;5074003;28;20044;-63
2021/06/27 07:11:47;;;;;;;22.10;17.73;;;;;;;;;;5073718;28;20095;-63
2021/06/27 07:14:13;;;;;;;21.95;16.83;;;;;;;;;;5055277;28;20036;-63
2021/06/27 07:16:39;;;;;;;21.60;17.23;;;;;;;;;;5073382;28;20067;-62
2021/06/27 07:19:05;;;;;;;22.50;17.33;;;;;;;;;;5073271;28;20055;-63
2021/06/27 07:21:31;;;;;;;20.85;17.67;;;;;;;;;;5073426;28;20064;-63
2021/06/27 07:23:57;;;;;;;20.85;16.90;;;;;;;;;;5055502;28;20024;-63
2021/06/27 07:26:24;;;;;;;20.88;17.80;;;;;;;;;;5073043;28;20503;-64
2021/06/27 07:28:50;;;;;;;20.90;16.73;;;;;;;;;;5073122;28;20032;-64
2021/06/27 07:31:16;;;;;;;20.00;17.00;;;;;;;;;;5055222;28;20025;-62
2021/06/27 07:33:42;;;;;;;21.20;16.98;;;;;;;;;;5055318;28;20499;-62
2021/06/27 07:36:08;;;;;;;20.92;17.10;;;;;;;;;;5073184;28;20460;-64
2021/06/27 07:38:34;;;;;;;19.45;16.30;;;;;;;;;;5054203;28;20028;-63
2021/06/27 07:41:00;;;;;;;21.25;17.08;;;;;;;;;;5073020;28;20036;-62
2021/06/27 07:43:26;;;;;;;22.23;17.90;;;;;;;;;;5072565;28;20029;-64
2021/06/27 07:45:52;;;;;;;19.80;15.48;;;;;;;;;;5054784;28;20035;-65
2021/06/27 07:48:19;;;;;;;19.52;16.50;;;;;;;;;;5054730;28;20112;-64
2021/06/27 07:50:45;;;;;;;20.67;16.65;;;;;;;;;;5054577;28;20020;-64
2021/06/27 07:53:11;;;;;;;22.15;18.63;;;;;;;;;;5072656;28;20112;-65
2021/06/27 07:55:37;;;;;;;19.65;16.35;;;;;;;;;;5072487;28;20103;-64
2021/06/27 07:58:04;;;;;;;19.50;16.63;;;;;;;;;;5054886;28;20452;-64
2021/06/27 08:00:30;;;;;;;19.85;16.10;;;;;;;;;;5054609;28;20114;-65
2021/06/27 08:02:56;;;;;;;19.48;14.93;;;;;;;;;;5054466;28;20107;-65
2021/06/27 08:05:22;;;;;;;19.92;16.23;;;;;;;;;;5054118;28;20029;-65
2021/06/27 08:07:48;;;;;;;19.15;15.82;;;;;;;;;;5054505;28;20111;-64
2021/06/27 08:10:14;;;;;;;20.27;16.73;;;;;;;;;;5054532;28;20063;-64
2021/06/27 08:12:41;;;;;;;20.48;15.77;;;;;;;;;;5072272;28;20280;-64
2021/06/27 08:15:08;;;;;;;19.58;15.85;;;;;;;;;;5071658;28;20099;-65
2021/06/27 08:17:35;;;;;;;20.50;15.97;;;;;;;;;;5054234;28;20025;-64
2021/06/27 08:20:01;;;;;;;22.20;16.45;;;;;;;;;;5072141;28;20275;-64
2021/06/27 08:22:27;;;;;;;21.42;16.92;;;;;;;;;;5072325;28;20390;-65
2021/06/27 08:24:53;;;;;;;18.65;15.75;;;;;;;;;;5071828;28;20025;-65
2021/06/27 08:27:19;;;;;;;19.50;16.20;;;;;;;;;;5071915;28;20028;-65
2021/06/27 08:29:45;;;;;;;20.75;17.15;;;;;;;;;;5072082;28;20074;-65
2021/06/27 08:32:11;;;;;;;20.83;17.45;;;;;;;;;;5071848;28;20021;-65
2021/06/27 08:34:37;;;;;;;21.02;18.02;;;;;;;;;;5053681;28;20070;-65
2021/06/27 08:37:03;;;;;;;20.00;17.30;;;;;;;;;;5072000;28;20091;-64
2021/06/27 08:39:29;;;;;;;20.67;17.48;;;;;;;;;;5071853;28;20033;-65
2021/06/27 08:41:56;;;;;;;19.40;16.70;;;;;;;;;;5071781;28;20027;-65
2021/06/27 08:44:23;;;;;;;19.80;16.48;;;;;;;;;;5071452;28;20539;-65
2021/06/27 08:46:49;;;;;;;22.20;16.92;;;;;;;;;;5053669;28;20029;-65
2021/06/27 08:49:15;;;;;;;19.85;17.10;;;;;;;;;;5074403;28;20033;-65
2021/06/27 08:51:41;;;;;;;23.17;17.95;;;;;;;;;;5078740;28;20419;-65
2021/06/27 08:54:11;;;;;;;20.98;16.88;;;;;;;;;;5078500;28;20027;-64
2021/06/27 08:56:37;;;;;;;22.15;16.92;;;;;;;;;;5059584;28;20031;-65
2021/06/27 08:59:03;;;;;;;22.77;20.33;;;;;;;;;;5077819;28;20020;-65
2021/06/27 09:01:30;;;;;;;21.85;19.55;;;;;;;;;;5077856;28;20024;-65
2021/06/27 09:03:56;;;;;;;19.58;17.25;;;;;;;;;;5075269;28;20066;-65
2021/06/27 09:06:29;;;;;;;19.42;17.02;;;;;;;;;;5059590;28;20025;-65
2021/06/27 09:09:08;;;;;;;19.55;17.45;;;;;;;;;;5074496;28;20017;-64
2021/06/27 09:11:34;;;;;;;19.52;17.15;;;;;;;;;;5077964;28;20017;-65
2021/06/27 09:14:00;;;;;;;20.73;17.45;;;;;;;;;;5060290;28;20605;-66
2021/06/27 09:16:26;;;;;;;19.35;17.25;;;;;;;;;;5059969;28;20020;-65
2021/06/27 09:18:59;;;;;;;21.08;17.23;;;;;;;;;;5078124;28;20032;-66
2021/06/27 09:21:25;;;;;;;19.33;17.23;;;;;;;;;;5078108;28;20035;-65
2021/06/27 09:23:52;;;;;;;22.92;17.65;;;;;;;;;;5078221;28;20040;-66
2021/06/27 09:26:44;;;;;;;19.73;17.63;;;;;;;;;;5077833;28;20543;-66
2021/06/27 09:29:25;;;;;;;19.35;16.92;;;;;;;;;;5074267;28;20071;-65
2021/06/27 09:31:51;;;;;;;20.30;16.63;;;;;;;;;;5077951;28;20052;-65
2021/06/27 09:34:17;;;;;;;18.70;16.70;;;;;;;;;;5078078;28;20031;-65
2021/06/27 09:36:47;;;;;;;19.60;17.30;;;;;;;;;;5077896;28;20484;-66
2021/06/27 09:39:15;;;;;;;19.80;17.70;;;;;;;;;;5077999;28;20055;-67
2021/06/27 09:41:51;;;;;;;21.00;18.35;;;;;;;;;;5078218;28;20048;-67
2021/06/27 09:44:18;;;;;;;19.40;17.27;;;;;;;;;;5078039;28;20021;-68
2021/06/27 09:46:46;;;;;;;19.50;17.40;;;;;;;;;;5077303;28;20442;-68
2021/06/27 09:49:12;;;;;;;;;;;;;;;;;;5059826;28;20021;-68
2021/06/27 09:51:42;;;;;;;19.17;16.60;;;;;;;;;;5060065;28;19910;-68
2021/06/27 09:54:13;;;;;;;20.10;17.20;;;;;;;;;;5078249;28;20050;-67
2021/06/27 09:56:39;;;;;;;19.63;17.52;;;;;;;;;;5059696;28;20073;-68
2021/06/27 09:59:09;;;;;;;20.88;17.95;;;;;;;;;;5078061;28;20055;-68
2021/06/27 10:01:36;;;;;;;19.58;17.48;;;;;;;;;;5074710;28;20031;-68
2021/06/27 10:04:03;;;;;;;20.38;17.02;;;;;;;;;;5075027;28;20039;-67
2021/06/27 10:06:31;;;;;;;19.27;17.25;;;;;;;;;;5074795;28;20094;-68
2021/06/27 10:09:07;;;;;;;18.58;16.30;;;;;;;;;;5057496;28;20021;-68
2021/06/27 10:11:33;;;;;;;20.02;17.92;;;;;;;;;;5056636;28;20040;-68
2021/06/27 10:14:05;;;;;;;19.23;17.13;;;;;;;;;;5074548;28;20028;-67
2021/06/27 10:16:33;;;;;;;18.55;16.58;;;;;;;;;;5056869;28;20123;-68
2021/06/27 10:19:01;;;;;;;19.38;17.33;;;;;;;;;;5074251;28;20025;-67
2021/06/27 10:21:27;;;;;;;19.73;17.73;;;;;;;;;;5056351;28;20032;-68
2021/06/27 10:23:54;;;;;;;20.05;17.83;;;;;;;;;;5056678;28;20043;-68
2021/06/27 10:26:21;;;;;;;18.98;16.98;;;;;;;;;;5074236;28;20029;-66
2021/06/27 10:28:47;;;;;;;20.30;18.20;;;;;;;;;;5074427;28;20031;-68
2021/06/27 10:31:14;;;;;;;21.25;18.95;;;;;;;;;;5074875;28;20372;-68
2021/06/27 10:33:41;;;;;;;19.75;17.63;;;;;;;;;;5056096;28;20484;-68
2021/06/27 10:36:09;;;;;;;19.40;17.33;;;;;;;;;;5056291;28;20446;-68
2021/06/27 10:38:35;;;;;;;21.07;18.47;;;;;;;;;;5074108;28;20032;-68
2021/06/27 10:41:01;;;;;;;19.70;17.40;;;;;;;;;;5073790;28;20045;-68
2021/06/27 10:43:48;;;;;;;19.85;17.77;;;;;;;;;;5074074;28;20082;-66
2021/06/27 10:46:19;;;;;;;21.17;17.73;;;;;;;;;;5045572;28;20127;-68
2021/06/27 10:48:45;;;;;;;19.77;17.77;;;;;;;;;;5074309;28;20020;-68
2021/06/27 10:51:13;;;;;;;20.40;17.30;;;;;;;;;;5073573;28;20024;-68
2021/06/27 10:53:57;;;;;;;20.27;18.17;;;;;;;;;;5073425;28;20048;-68
2021/06/27 10:56:42;;;;;;;21.92;18.42;;;;;;;;;;5068199;28;20040;-68
2021/06/27 10:59:08;;;;;;;20.42;18.33;;;;;;;;;;5070205;28;20117;-68
2021/06/27 11:01:45;;;;;;;20.45;18.25;;;;;;;;;;5069997;28;20555;-65
2021/06/27 11:04:37;;;;;;;19.80;17.80;;;;;;;;;;5070196;28;20539;-68
2021/06/27 11:07:04;;;;;;;20.80;18.15;;;;;;;;;;5062296;28;20071;-68
2021/06/27 11:09:30;;;;;;;19.98;17.77;;;;;;;;;;5052464;28;20032;-68
2021/06/27 11:11:57;;;;;;;19.45;17.45;;;;;;;;;;5069982;28;20112;-68
2021/06/27 11:14:23;;;;;;;21.30;18.00;;;;;;;;;;5070202;28;20035;-68
2021/06/27 11:16:56;;;;;;;19.85;17.50;;;;;;;;;;5070754;28;20043;-67
2021/06/27 11:19:40;;;;;;;21.10;17.98;;;;;;;;;;5052092;28;20112;-67
2021/06/27 11:22:15;;;;;;;19.98;17.88;;;;;;;;;;5050834;28;20481;-67
2021/06/27 11:24:42;;;;;;;20.80;17.83;;;;;;;;;;5050482;28;20036;-67
2021/06/27 11:27:26;;;;;;;19.92;17.80;;;;;;;;;;5069996;28;20197;-67
2021/06/27 11:29:52;;;;;;;20.10;18.02;;;;;;;;;;5051498;28;20028;-67
2021/06/27 11:32:18;;;;;;;22.33;20.05;;;;;;;;;;5069454;28;20250;-67
2021/06/27 11:34:54;;;;;;;21.35;18.60;;;;;;;;;;5071921;28;20020;-68
2021/06/27 11:37:21;;;;;;;20.35;18.35;;;;;;;;;;5072400;28;20021;-67
2021/06/27 11:39:51;;;;;;;20.48;18.38;;;;;;;;;;5071933;28;20017;-67
2021/06/27 11:42:23;;;;;;;20.27;18.17;;;;;;;;;;5070092;28;20035;-71
2021/06/27 11:45:09;;;;;;;20.60;18.60;;;;;;;;;;5071964;28;20555;-68
2021/06/27 11:47:39;;;;;;;20.45;18.45;;;;;;;;;;5070508;28;20103;-68
2021/06/27 11:50:21;;;;;;;20.33;18.33;;;;;;;;;;5072953;28;20021;-68
2021/06/27 11:53:10;;;;;;;20.77;18.67;;;;;;;;;;4720277;28;10000440;-67
2021/06/27 11:55:40;;;;;;;20.23;18.23;;;;;;;;;;5056376;28;20083;-67
2021/06/27 11:58:08;;;;;;;21.00;19.00;;;35.20;63.30;;;;;;5069611;28;20031;-66
2021/06/27 12:00:40;;;;;;;20.58;18.35;;;36.80;69.20;;;;;;5051569;28;20111;-67
2021/06/27 12:03:10;;;;;;;20.33;18.33;;;;;;;;;;5069328;28;20024;-67
2021/06/27 12:05:37;;;;;;;21.00;18.90;;;;;;;;;;5051168;28;20384;-66
2021/06/27 12:08:08;;;;;;;20.52;18.48;;;;;;;;;;5069072;28;20020;-67
2021/06/27 12:10:35;;;;;;;20.48;18.38;;;;;;;;;;5069228;28;20394;-67
2021/06/27 12:13:02;;;;;;;19.98;17.98;;;;;;;;;;5069202;28;20055;-67
2021/06/27 12:15:37;;;;;;;20.63;18.52;;;;;;;;;;5051269;28;20027;-67
2021/06/27 12:18:05;;;;;;;20.70;18.70;;;36.50;69.90;;;;;;5069698;28;20100;-67
2021/06/27 12:20:39;;;;;;;20.83;18.73;;;;;;;;;;5053944;28;20024;-67
2021/06/27 12:23:08;;;;;;;20.50;18.42;;;;;;;;;;5072289;28;20107;-67
2021/06/27 12:25:39;;;;;;;20.70;18.65;;;;;;;;;;5071631;28;20504;-68
2021/06/27 12:28:07;;;;;;;21.25;19.05;;;37.70;65.30;;;;;;5072171;28;20021;-68
2021/06/27 12:30:43;;;;;;;20.63;18.63;;;38.10;64.00;;;;;;5071525;28;20024;-68
2021/06/27 12:33:12;;;;;;;21.75;19.55;;;38.60;66.30;;;;;;5078809;28;20028;-68
2021/06/27 12:35:40;;;;;;;21.30;19.20;;;39.70;64.10;;;;;;5090948;28;20032;-67
2021/06/27 12:38:06;;;;;;;21.23;19.13;;;;;;;;;;5072449;28;20495;-68
2021/06/27 12:40:32;;;;;;;20.10;18.10;;;;;;;;;;5073649;22;20053;-64
2021/06/27 12:42:58;;;;;;;20.45;18.45;;;38.60;63.20;;;;;;5009023;28;20202;-64
2021/06/27 12:45:25;;;;;;;20.80;18.80;;;38.50;62.60;;;;;;5010951;28;20501;-64
2021/06/27 12:47:51;;;;;;;20.70;18.60;;;38.70;61.80;;;;;;5010385;28;20030;-65
2021/06/27 12:50:33;;;;;;;20.98;18.95;;;38.20;62.10;;;;;;5011856;28;20028;-64
2021/06/27 12:53:04;;;;;;;20.98;18.88;;;38.30;61.40;;;;;;5012129;28;20021;-64
2021/06/27 12:55:30;;;;;;;20.77;18.70;;;38.50;61.40;;;;;;5010476;28;20080;-64
2021/06/27 12:57:56;;;;;;;20.80;18.80;;;39.10;61.50;;;;;;5011983;28;20418;-64
2021/06/27 13:00:22;;;;;;;20.35;18.35;;;;;;;;;;5011494;28;20402;-64
2021/06/27 13:02:49;;;;;;;20.92;18.85;;;;;;;;;;5011809;28;20026;-65
2021/06/27 13:05:16;;;;;;;23.97;20.07;;;;;;;;;;5011812;28;20105;-64
2021/06/27 13:07:44;;;;;;;20.88;18.88;;;;;;;;;;5011904;28;20097;-62
2021/06/27 13:10:13;;;;;;;20.63;18.63;;;;;;;;;;5011682;28;20029;-62
2021/06/27 13:12:42;;;;;;;21.30;19.17;;;;;;;;;;5011703;28;20022;-62
2021/06/27 13:15:12;;;;;;;21.05;18.95;;;;;;;;;;5011561;28;20041;-62
2021/06/27 13:17:42;;;;;;;21.10;19.00;;;;;;;;;;5011872;28;20037;-63
2021/06/27 13:20:13;;;;;;;21.27;19.15;;;;;;;;;;5011593;28;20561;-62
2021/06/27 13:22:54;;;;;;;20.80;18.63;;;;;;;;;;5011700;28;20034;-63
2021/06/27 13:25:31;;;;;;;21.20;19.05;;;;;;;;;;5011466;28;20406;-63
2021/06/27 13:27:57;;;;;;;20.53;18.63;;;;;;;;;;5011802;28;20537;-63
2021/06/27 13:30:24;;;;;;;20.90;18.73;;;37.70;62.20;;;;;;5010573;28;20022;-62
2021/06/27 13:33:03;;;;;;;21.35;19.27;;;;;;;;;;5011585;28;20101;-63
2021/06/27 13:35:33;;;;;;;21.40;19.40;;;39.10;57.40;;;;;;5010228;28;20553;-62
2021/06/27 13:38:02;;;;;;;20.95;18.85;;;40.30;57.40;;;;;;5015282;28;20025;-63
2021/06/27 13:40:27;;;;;;;20.85;18.85;;;;;;;;;;5015160;28;20034;-62
2021/06/27 13:42:54;;;;;;;21.15;19.15;;;;;;;;;;5013839;28;20083;-62
2021/06/27 13:45:21;;;;;;;20.83;18.77;;;;;;;;;;5014899;28;20022;-62
2021/06/27 13:47:51;;;;;;;20.98;18.77;;;;;;;;;;5015578;28;20102;-64
2021/06/27 13:50:17;;;;;;;20.70;18.67;;;;;;;;;;5015083;28;20485;-63
2021/06/27 13:52:44;;;;;;;20.88;18.88;;;;;;;;;;5014084;28;20105;-65
2021/06/27 13:55:10;;;;;;;20.97;18.77;;;;;;;;;;5013728;28;20029;-63
2021/06/27 13:57:36;;;;;;;24.20;18.80;;;;;;;;;;5015230;28;20030;-63
2021/06/27 14:00:04;;;;;;;20.48;18.50;;;;;;;;;;5014925;28;20037;-63
2021/06/27 14:02:30;;;;;;;20.50;18.50;;;;;;;;;;5013653;28;20029;-63
2021/06/27 14:04:56;;;;;;;20.50;18.40;;;;;;;;;;5013152;28;20037;-63
2021/06/27 14:07:22;;;;;;;20.60;18.60;;;;;;;;;;5014786;28;20029;-64
2021/06/27 14:09:48;;;;;;;21.10;19.10;;;;;;;;;;5014991;28;20026;-64
2021/06/27 14:12:14;;;;;;;20.52;18.42;;;;;;;;;;5013383;28;20045;-64
2021/06/27 14:14:41;;;;;;;20.58;18.40;;;;;;;;;;5013115;28;20029;-64
2021/06/27 14:17:07;;;;;;;21.25;19.23;;;;;;;;;;5015123;28;20049;-63